sensor_id;sensor_type;location;lat;lon;timestamp;P1;durP1;ratioP1;P2;durP2;ratioP2
22794;SDS011;11564;50.920;11.612;2022-10-13T00:01:54;11.53;;;8.73;;
22794;SDS011;11564;50.920;11.612;2022-10-13T00:04:20;11.37;;;8.70;;
22794;SDS011;11564;50.920;11.612;2022-10-13T00:06:45;12.10;;;8.30;;
22794;SDS011;11564;50.920;11.612;2022-10-13T00:09:11;13.20;;;8.10;;
22794;SDS011;11564;50.920;11.612;2022-10-13T00:11:36;12.73;;;7.77;;
22794;SDS011;11564;50.920;11.612;2022-10-13T00:14:02;13.27;;;8.43;;
22794;SDS011;11564;50.920;11.612;2022-10-13T00:16:29;10.23;;;7.77;;
22794;SDS011;11564;50.920;11.612;2022-10-13T00:18:55;14.03;;;8.80;;
22794;SDS011;11564;50.920;11.612;2022-10-13T00:21:22;11.27;;;7.93;;
22794;SDS011;11564;50.920;11.612;2022-10-13T00:23:49;10.20;;;8.73;;
22794;SDS011;11564;50.920;11.612;2022-10-13T00:26:16;16.80;;;8.23;;
22794;SDS011;11564;50.920;11.612;2022-10-13T00:28:42;24.33;;;9.30;;
22794;SDS011;11564;50.920;11.612;2022-10-13T00:31:19;17.10;;;9.00;;
22794;SDS011;11564;50.920;11.612;2022-10-13T00:33:46;14.17;;;9.27;;
22794;SDS011;11564;50.920;11.612;2022-10-13T00:36:13;16.13;;;9.40;;
22794;SDS011;11564;50.920;11.612;2022-10-13T00:38:39;13.17;;;7.63;;
22794;SDS011;11564;50.920;11.612;2022-10-13T00:41:05;13.30;;;9.30;;
22794;SDS011;11564;50.920;11.612;2022-10-13T00:46:21;20.07;;;9.87;;
22794;SDS011;11564;50.920;11.612;2022-10-13T00:48:49;13.83;;;8.10;;
22794;SDS011;11564;50.920;11.612;2022-10-13T00:51:16;13.07;;;8.57;;
22794;SDS011;11564;50.920;11.612;2022-10-13T00:53:44;17.10;;;8.97;;
22794;SDS011;11564;50.920;11.612;2022-10-13T00:56:11;16.13;;;10.30;;
22794;SDS011;11564;50.920;11.612;2022-10-13T00:58:39;17.60;;;10.50;;
22794;SDS011;11564;50.920;11.612;2022-10-13T01:01:06;15.30;;;9.37;;
22794;SDS011;11564;50.920;11.612;2022-10-13T01:03:32;17.53;;;10.43;;
22794;SDS011;11564;50.920;11.612;2022-10-13T01:05:58;14.77;;;9.80;;
22794;SDS011;11564;50.920;11.612;2022-10-13T01:08:26;12.63;;;8.63;;
22794;SDS011;11564;50.920;11.612;2022-10-13T01:16:14;10.50;;;8.43;;
22794;SDS011;11564;50.920;11.612;2022-10-13T01:18:54;14.30;;;9.70;;
22794;SDS011;11564;50.920;11.612;2022-10-13T01:21:42;11.90;;;9.53;;
22794;SDS011;11564;50.920;11.612;2022-10-13T01:24:27;19.07;;;9.80;;
22794;SDS011;11564;50.920;11.612;2022-10-13T01:30:05;11.43;;;9.90;;
22794;SDS011;11564;50.920;11.612;2022-10-13T01:35:31;15.50;;;9.90;;
22794;SDS011;11564;50.920;11.612;2022-10-13T01:38:45;11.03;;;9.27;;
22794;SDS011;11564;50.920;11.612;2022-10-13T01:41:17;22.27;;;9.93;;
22794;SDS011;11564;50.920;11.612;2022-10-13T01:46:32;13.07;;;11.10;;
22794;SDS011;11564;50.920;11.612;2022-10-13T01:49:02;16.53;;;8.53;;
22794;SDS011;11564;50.920;11.612;2022-10-13T01:51:31;15.07;;;9.80;;
22794;SDS011;11564;50.920;11.612;2022-10-13T01:53:59;15.90;;;9.70;;
22794;SDS011;11564;50.920;11.612;2022-10-13T01:56:24;11.40;;;9.07;;
22794;SDS011;11564;50.920;11.612;2022-10-13T01:58:50;15.80;;;9.40;;
22794;SDS011;11564;50.920;11.612;2022-10-13T02:03:59;11.57;;;9.80;;
22794;SDS011;11564;50.920;11.612;2022-10-13T02:12:32;15.27;;;9.60;;
22794;SDS011;11564;50.920;11.612;2022-10-13T02:15:04;17.60;;;9.10;;
22794;SDS011;11564;50.920;11.612;2022-10-13T02:17:32;10.60;;;8.60;;
22794;SDS011;11564;50.920;11.612;2022-10-13T02:19:59;19.47;;;9.23;;
22794;SDS011;11564;50.920;11.612;2022-10-13T02:22:26;10.90;;;8.60;;
22794;SDS011;11564;50.920;11.612;2022-10-13T02:24:55;15.83;;;9.23;;
22794;SDS011;11564;50.920;11.612;2022-10-13T02:27:21;21.83;;;8.80;;
22794;SDS011;11564;50.920;11.612;2022-10-13T02:29:51;14.90;;;8.50;;
22794;SDS011;11564;50.920;11.612;2022-10-13T02:32:18;11.63;;;8.70;;
22794;SDS011;11564;50.920;11.612;2022-10-13T02:34:45;10.27;;;8.40;;
22794;SDS011;11564;50.920;11.612;2022-10-13T02:37:10;9.77;;;7.87;;
22794;SDS011;11564;50.920;11.612;2022-10-13T02:39:36;14.23;;;8.00;;
22794;SDS011;11564;50.920;11.612;2022-10-13T02:42:02;11.77;;;8.00;;
22794;SDS011;11564;50.920;11.612;2022-10-13T02:44:28;14.80;;;9.13;;
22794;SDS011;11564;50.920;11.612;2022-10-13T02:46:53;11.37;;;8.50;;
22794;SDS011;11564;50.920;11.612;2022-10-13T02:49:19;10.63;;;8.23;;
22794;SDS011;11564;50.920;11.612;2022-10-13T02:51:44;18.00;;;8.60;;
22794;SDS011;11564;50.920;11.612;2022-10-13T02:54:10;15.00;;;8.90;;
22794;SDS011;11564;50.920;11.612;2022-10-13T02:56:35;20.93;;;9.43;;
22794;SDS011;11564;50.920;11.612;2022-10-13T02:59:01;17.83;;;9.70;;
22794;SDS011;11564;50.920;11.612;2022-10-13T03:01:27;13.83;;;9.03;;
22794;SDS011;11564;50.920;11.612;2022-10-13T03:03:52;17.10;;;9.93;;
22794;SDS011;11564;50.920;11.612;2022-10-13T03:06:18;18.47;;;9.87;;
22794;SDS011;11564;50.920;11.612;2022-10-13T03:08:43;18.30;;;9.40;;
22794;SDS011;11564;50.920;11.612;2022-10-13T03:11:09;17.80;;;8.27;;
22794;SDS011;11564;50.920;11.612;2022-10-13T03:13:35;14.87;;;8.93;;
22794;SDS011;11564;50.920;11.612;2022-10-13T03:16:01;14.70;;;7.83;;
22794;SDS011;11564;50.920;11.612;2022-10-13T03:18:27;17.43;;;9.00;;
22794;SDS011;11564;50.920;11.612;2022-10-13T03:21:00;16.03;;;8.83;;
22794;SDS011;11564;50.920;11.612;2022-10-13T03:23:28;13.33;;;8.97;;
22794;SDS011;11564;50.920;11.612;2022-10-13T03:25:54;12.00;;;8.63;;
22794;SDS011;11564;50.920;11.612;2022-10-13T03:28:20;14.90;;;8.80;;
22794;SDS011;11564;50.920;11.612;2022-10-13T03:30:46;15.83;;;8.80;;
22794;SDS011;11564;50.920;11.612;2022-10-13T03:33:12;16.80;;;8.70;;
22794;SDS011;11564;50.920;11.612;2022-10-13T03:35:38;19.03;;;9.77;;
22794;SDS011;11564;50.920;11.612;2022-10-13T03:38:03;13.43;;;8.57;;
22794;SDS011;11564;50.920;11.612;2022-10-13T03:40:29;12.20;;;8.37;;
22794;SDS011;11564;50.920;11.612;2022-10-13T03:42:54;16.13;;;9.50;;
22794;SDS011;11564;50.920;11.612;2022-10-13T03:45:20;14.73;;;9.30;;
22794;SDS011;11564;50.920;11.612;2022-10-13T03:47:46;15.53;;;8.40;;
22794;SDS011;11564;50.920;11.612;2022-10-13T03:50:11;15.87;;;9.80;;
22794;SDS011;11564;50.920;11.612;2022-10-13T03:52:37;13.20;;;9.00;;
22794;SDS011;11564;50.920;11.612;2022-10-13T03:55:04;25.87;;;9.17;;
22794;SDS011;11564;50.920;11.612;2022-10-13T03:57:30;16.10;;;8.60;;
22794;SDS011;11564;50.920;11.612;2022-10-13T03:59:55;19.67;;;10.33;;
22794;SDS011;11564;50.920;11.612;2022-10-13T04:02:22;19.30;;;11.17;;
22794;SDS011;11564;50.920;11.612;2022-10-13T04:04:48;18.00;;;10.07;;
22794;SDS011;11564;50.920;11.612;2022-10-13T04:07:14;21.23;;;9.73;;
22794;SDS011;11564;50.920;11.612;2022-10-13T04:09:40;17.33;;;9.63;;
22794;SDS011;11564;50.920;11.612;2022-10-13T04:12:06;19.50;;;9.83;;
22794;SDS011;11564;50.920;11.612;2022-10-13T04:14:32;19.40;;;10.07;;
22794;SDS011;11564;50.920;11.612;2022-10-13T04:16:57;20.40;;;9.80;;
22794;SDS011;11564;50.920;11.612;2022-10-13T04:19:23;17.03;;;8.97;;
22794;SDS011;11564;50.920;11.612;2022-10-13T04:21:49;15.47;;;10.00;;
22794;SDS011;11564;50.920;11.612;2022-10-13T04:24:15;24.13;;;10.60;;
22794;SDS011;11564;50.920;11.612;2022-10-13T04:26:42;14.20;;;9.27;;
22794;SDS011;11564;50.920;11.612;2022-10-13T04:29:09;19.63;;;10.07;;
22794;SDS011;11564;50.920;11.612;2022-10-13T04:31:35;16.03;;;10.33;;
22794;SDS011;11564;50.920;11.612;2022-10-13T04:34:02;15.90;;;10.67;;
22794;SDS011;11564;50.920;11.612;2022-10-13T04:36:28;18.37;;;10.97;;
22794;SDS011;11564;50.920;11.612;2022-10-13T04:38:54;15.83;;;10.20;;
22794;SDS011;11564;50.920;11.612;2022-10-13T04:41:19;14.23;;;9.30;;
22794;SDS011;11564;50.920;11.612;2022-10-13T04:43:47;17.83;;;9.80;;
22794;SDS011;11564;50.920;11.612;2022-10-13T04:46:15;10.37;;;9.23;;
22794;SDS011;11564;50.920;11.612;2022-10-13T04:48:43;13.33;;;9.23;;
22794;SDS011;11564;50.920;11.612;2022-10-13T04:51:10;13.23;;;9.77;;
22794;SDS011;11564;50.920;11.612;2022-10-13T04:53:38;26.20;;;9.40;;
22794;SDS011;11564;50.920;11.612;2022-10-13T04:56:06;14.97;;;9.57;;
22794;SDS011;11564;50.920;11.612;2022-10-13T04:58:33;18.63;;;9.57;;
22794;SDS011;11564;50.920;11.612;2022-10-13T05:01:00;14.47;;;10.50;;
22794;SDS011;11564;50.920;11.612;2022-10-13T05:03:27;14.03;;;9.90;;
22794;SDS011;11564;50.920;11.612;2022-10-13T05:05:53;12.07;;;9.10;;
22794;SDS011;11564;50.920;11.612;2022-10-13T05:08:19;12.97;;;8.90;;
22794;SDS011;11564;50.920;11.612;2022-10-13T05:10:58;14.07;;;9.43;;
22794;SDS011;11564;50.920;11.612;2022-10-13T05:13:26;15.97;;;9.20;;
22794;SDS011;11564;50.920;11.612;2022-10-13T05:15:52;12.70;;;8.80;;
22794;SDS011;11564;50.920;11.612;2022-10-13T05:18:18;16.33;;;9.67;;
22794;SDS011;11564;50.920;11.612;2022-10-13T05:20:44;22.00;;;9.80;;
22794;SDS011;11564;50.920;11.612;2022-10-13T05:23:10;12.00;;;9.10;;
22794;SDS011;11564;50.920;11.612;2022-10-13T05:25:36;14.83;;;9.33;;
22794;SDS011;11564;50.920;11.612;2022-10-13T05:28:03;14.30;;;9.40;;
22794;SDS011;11564;50.920;11.612;2022-10-13T05:30:29;16.73;;;10.00;;
22794;SDS011;11564;50.920;11.612;2022-10-13T05:32:55;21.37;;;10.33;;
22794;SDS011;11564;50.920;11.612;2022-10-13T05:35:22;22.10;;;9.90;;
22794;SDS011;11564;50.920;11.612;2022-10-13T05:37:48;17.17;;;9.90;;
22794;SDS011;11564;50.920;11.612;2022-10-13T05:40:13;15.97;;;9.47;;
22794;SDS011;11564;50.920;11.612;2022-10-13T05:42:39;12.27;;;9.43;;
22794;SDS011;11564;50.920;11.612;2022-10-13T05:45:05;13.43;;;8.20;;
22794;SDS011;11564;50.920;11.612;2022-10-13T05:47:33;17.30;;;9.57;;
22794;SDS011;11564;50.920;11.612;2022-10-13T05:49:59;18.80;;;9.10;;
22794;SDS011;11564;50.920;11.612;2022-10-13T05:52:25;16.97;;;10.03;;
22794;SDS011;11564;50.920;11.612;2022-10-13T05:54:55;11.57;;;8.67;;
22794;SDS011;11564;50.920;11.612;2022-10-13T05:57:37;19.53;;;10.00;;
22794;SDS011;11564;50.920;11.612;2022-10-13T06:02:38;18.47;;;8.70;;
22794;SDS011;11564;50.920;11.612;2022-10-13T06:05:10;23.00;;;9.17;;
22794;SDS011;11564;50.920;11.612;2022-10-13T06:07:38;23.67;;;9.70;;
22794;SDS011;11564;50.920;11.612;2022-10-13T06:10:04;18.93;;;9.27;;
22794;SDS011;11564;50.920;11.612;2022-10-13T06:12:29;10.33;;;8.97;;
22794;SDS011;11564;50.920;11.612;2022-10-13T06:14:55;15.67;;;9.67;;
22794;SDS011;11564;50.920;11.612;2022-10-13T06:17:21;20.30;;;9.60;;
22794;SDS011;11564;50.920;11.612;2022-10-13T06:19:46;14.83;;;9.10;;
22794;SDS011;11564;50.920;11.612;2022-10-13T06:22:12;26.50;;;11.83;;
22794;SDS011;11564;50.920;11.612;2022-10-13T06:24:37;16.93;;;10.23;;
22794;SDS011;11564;50.920;11.612;2022-10-13T06:27:03;17.40;;;10.57;;
22794;SDS011;11564;50.920;11.612;2022-10-13T06:29:28;16.40;;;9.53;;
22794;SDS011;11564;50.920;11.612;2022-10-13T06:31:54;18.80;;;10.70;;
22794;SDS011;11564;50.920;11.612;2022-10-13T06:34:19;16.63;;;9.63;;
22794;SDS011;11564;50.920;11.612;2022-10-13T06:36:45;11.57;;;8.93;;
22794;SDS011;11564;50.920;11.612;2022-10-13T06:39:11;14.43;;;9.10;;
22794;SDS011;11564;50.920;11.612;2022-10-13T06:41:36;12.77;;;9.17;;
22794;SDS011;11564;50.920;11.612;2022-10-13T06:44:02;14.83;;;9.00;;
22794;SDS011;11564;50.920;11.612;2022-10-13T06:46:28;10.83;;;8.10;;
22794;SDS011;11564;50.920;11.612;2022-10-13T06:48:53;14.33;;;9.50;;
22794;SDS011;11564;50.920;11.612;2022-10-13T06:51:20;16.57;;;9.77;;
22794;SDS011;11564;50.920;11.612;2022-10-13T06:53:45;17.83;;;10.00;;
22794;SDS011;11564;50.920;11.612;2022-10-13T06:56:11;28.57;;;9.40;;
22794;SDS011;11564;50.920;11.612;2022-10-13T06:58:37;19.03;;;9.50;;
22794;SDS011;11564;50.920;11.612;2022-10-13T07:01:03;15.17;;;9.13;;
22794;SDS011;11564;50.920;11.612;2022-10-13T07:03:30;13.63;;;9.70;;
22794;SDS011;11564;50.920;11.612;2022-10-13T07:05:59;12.20;;;9.03;;
22794;SDS011;11564;50.920;11.612;2022-10-13T07:08:25;22.53;;;8.83;;
22794;SDS011;11564;50.920;11.612;2022-10-13T07:10:51;12.30;;;8.70;;
22794;SDS011;11564;50.920;11.612;2022-10-13T07:13:17;15.93;;;8.77;;
22794;SDS011;11564;50.920;11.612;2022-10-13T07:15:42;20.77;;;8.80;;
22794;SDS011;11564;50.920;11.612;2022-10-13T07:18:08;15.13;;;9.40;;
22794;SDS011;11564;50.920;11.612;2022-10-13T07:20:33;14.33;;;9.10;;
22794;SDS011;11564;50.920;11.612;2022-10-13T07:22:59;14.43;;;8.70;;
22794;SDS011;11564;50.920;11.612;2022-10-13T07:25:25;14.90;;;10.33;;
22794;SDS011;11564;50.920;11.612;2022-10-13T07:27:51;16.43;;;9.80;;
22794;SDS011;11564;50.920;11.612;2022-10-13T07:30:17;21.57;;;9.00;;
22794;SDS011;11564;50.920;11.612;2022-10-13T07:32:42;16.47;;;8.67;;
22794;SDS011;11564;50.920;11.612;2022-10-13T07:35:08;15.57;;;9.03;;
22794;SDS011;11564;50.920;11.612;2022-10-13T07:37:35;13.50;;;8.00;;
22794;SDS011;11564;50.920;11.612;2022-10-13T07:40:01;19.63;;;8.53;;
22794;SDS011;11564;50.920;11.612;2022-10-13T07:42:28;14.10;;;8.90;;
22794;SDS011;11564;50.920;11.612;2022-10-13T07:44:54;13.33;;;8.50;;
22794;SDS011;11564;50.920;11.612;2022-10-13T07:47:19;13.00;;;9.30;;
22794;SDS011;11564;50.920;11.612;2022-10-13T07:49:45;15.37;;;9.80;;
22794;SDS011;11564;50.920;11.612;2022-10-13T07:52:10;13.30;;;9.63;;
22794;SDS011;11564;50.920;11.612;2022-10-13T07:54:36;22.90;;;11.70;;
22794;SDS011;11564;50.920;11.612;2022-10-13T07:57:01;14.23;;;10.03;;
22794;SDS011;11564;50.920;11.612;2022-10-13T07:59:28;18.07;;;9.63;;
22794;SDS011;11564;50.920;11.612;2022-10-13T08:01:56;19.90;;;11.50;;
22794;SDS011;11564;50.920;11.612;2022-10-13T08:04:21;22.60;;;11.50;;
22794;SDS011;11564;50.920;11.612;2022-10-13T08:06:47;28.73;;;17.00;;
22794;SDS011;11564;50.920;11.612;2022-10-13T08:09:12;23.10;;;16.17;;
22794;SDS011;11564;50.920;11.612;2022-10-13T08:11:38;12.90;;;10.57;;
22794;SDS011;11564;50.920;11.612;2022-10-13T08:14:04;19.47;;;11.10;;
22794;SDS011;11564;50.920;11.612;2022-10-13T08:16:29;14.33;;;10.33;;
22794;SDS011;11564;50.920;11.612;2022-10-13T08:18:56;13.00;;;9.33;;
22794;SDS011;11564;50.920;11.612;2022-10-13T08:21:22;19.80;;;10.70;;
22794;SDS011;11564;50.920;11.612;2022-10-13T08:23:48;21.03;;;13.33;;
22794;SDS011;11564;50.920;11.612;2022-10-13T08:26:24;19.50;;;11.57;;
22794;SDS011;11564;50.920;11.612;2022-10-13T08:28:52;23.77;;;13.00;;
22794;SDS011;11564;50.920;11.612;2022-10-13T08:31:18;24.20;;;16.40;;
22794;SDS011;11564;50.920;11.612;2022-10-13T08:33:44;30.87;;;17.70;;
22794;SDS011;11564;50.920;11.612;2022-10-13T08:36:12;27.70;;;17.80;;
22794;SDS011;11564;50.920;11.612;2022-10-13T08:38:38;30.17;;;19.63;;
22794;SDS011;11564;50.920;11.612;2022-10-13T08:41:18;35.13;;;18.20;;
22794;SDS011;11564;50.920;11.612;2022-10-13T08:43:48;32.87;;;18.80;;
22794;SDS011;11564;50.920;11.612;2022-10-13T08:46:22;36.67;;;17.30;;
22794;SDS011;11564;50.920;11.612;2022-10-13T08:48:51;29.77;;;16.70;;
22794;SDS011;11564;50.920;11.612;2022-10-13T08:51:18;28.47;;;17.27;;
22794;SDS011;11564;50.920;11.612;2022-10-13T08:53:44;32.13;;;18.67;;
22794;SDS011;11564;50.920;11.612;2022-10-13T08:56:16;30.73;;;16.53;;
22794;SDS011;11564;50.920;11.612;2022-10-13T08:58:53;27.80;;;16.10;;
22794;SDS011;11564;50.920;11.612;2022-10-13T09:06:29;30.70;;;16.47;;
22794;SDS011;11564;50.920;11.612;2022-10-13T09:09:01;24.93;;;16.70;;
22794;SDS011;11564;50.920;11.612;2022-10-13T09:11:28;23.73;;;14.63;;
22794;SDS011;11564;50.920;11.612;2022-10-13T09:14:27;25.27;;;15.83;;
22794;SDS011;11564;50.920;11.612;2022-10-13T09:16:56;24.50;;;13.70;;
22794;SDS011;11564;50.920;11.612;2022-10-13T09:19:37;27.47;;;16.03;;
22794;SDS011;11564;50.920;11.612;2022-10-13T09:25:03;32.90;;;15.80;;
22794;SDS011;11564;50.920;11.612;2022-10-13T09:35:37;39.80;;;17.40;;
22794;SDS011;11564;50.920;11.612;2022-10-13T09:38:07;26.30;;;17.80;;
22794;SDS011;11564;50.920;11.612;2022-10-13T09:40:37;31.10;;;18.10;;
22794;SDS011;11564;50.920;11.612;2022-10-13T09:43:14;32.90;;;17.10;;
22794;SDS011;11564;50.920;11.612;2022-10-13T09:45:52;25.93;;;15.40;;
22794;SDS011;11564;50.920;11.612;2022-10-13T09:48:20;26.03;;;16.10;;
22794;SDS011;11564;50.920;11.612;2022-10-13T09:50:49;28.90;;;14.93;;
22794;SDS011;11564;50.920;11.612;2022-10-13T09:59:29;25.70;;;15.50;;
22794;SDS011;11564;50.920;11.612;2022-10-13T10:01:44;24.47;;;15.43;;
22794;SDS011;11564;50.920;11.612;2022-10-13T10:04:15;25.50;;;14.83;;
22794;SDS011;11564;50.920;11.612;2022-10-13T10:06:53;30.67;;;14.93;;
22794;SDS011;11564;50.920;11.612;2022-10-13T10:09:33;34.40;;;14.80;;
22794;SDS011;11564;50.920;11.612;2022-10-13T10:12:03;28.73;;;16.20;;
22794;SDS011;11564;50.920;11.612;2022-10-13T10:14:31;22.70;;;15.50;;
22794;SDS011;11564;50.920;11.612;2022-10-13T10:17:13;25.23;;;14.97;;
22794;SDS011;11564;50.920;11.612;2022-10-13T10:22:38;29.37;;;14.47;;
22794;SDS011;11564;50.920;11.612;2022-10-13T10:28:20;20.73;;;14.20;;
22794;SDS011;11564;50.920;11.612;2022-10-13T10:36:49;26.70;;;14.10;;
22794;SDS011;11564;50.920;11.612;2022-10-13T10:39:31;26.57;;;14.33;;
22794;SDS011;11564;50.920;11.612;2022-10-13T10:42:11;22.70;;;13.90;;
22794;SDS011;11564;50.920;11.612;2022-10-13T10:44:46;20.17;;;14.80;;
22794;SDS011;11564;50.920;11.612;2022-10-13T10:47:26;25.73;;;14.20;;
22794;SDS011;11564;50.920;11.612;2022-10-13T10:50:06;21.93;;;13.37;;
22794;SDS011;11564;50.920;11.612;2022-10-13T10:55:25;24.93;;;13.50;;
22794;SDS011;11564;50.920;11.612;2022-10-13T10:58:01;21.30;;;13.60;;
22794;SDS011;11564;50.920;11.612;2022-10-13T11:00:36;19.30;;;12.80;;
22794;SDS011;11564;50.920;11.612;2022-10-13T11:08:40;27.37;;;14.90;;
22794;SDS011;11564;50.920;11.612;2022-10-13T11:13:53;22.93;;;13.90;;
22794;SDS011;11564;50.920;11.612;2022-10-13T11:16:31;17.87;;;12.83;;
22794;SDS011;11564;50.920;11.612;2022-10-13T11:19:26;27.50;;;12.80;;
22794;SDS011;11564;50.920;11.612;2022-10-13T11:27:43;20.93;;;12.50;;
22794;SDS011;11564;50.920;11.612;2022-10-13T11:29:59;15.47;;;12.10;;
22794;SDS011;11564;50.920;11.612;2022-10-13T11:53:49;20.23;;;12.23;;
22794;SDS011;11564;50.920;11.612;2022-10-13T11:56:47;20.60;;;11.87;;
22794;SDS011;11564;50.920;11.612;2022-10-13T11:59:23;17.07;;;10.87;;
22794;SDS011;11564;50.920;11.612;2022-10-13T12:01:58;14.03;;;10.40;;
22794;SDS011;11564;50.920;11.612;2022-10-13T12:04:36;15.37;;;11.40;;
22794;SDS011;11564;50.920;11.612;2022-10-13T12:07:07;20.27;;;10.23;;
22794;SDS011;11564;50.920;11.612;2022-10-13T12:09:35;15.13;;;10.37;;
22794;SDS011;11564;50.920;11.612;2022-10-13T12:12:15;21.80;;;10.43;;
22794;SDS011;11564;50.920;11.612;2022-10-13T12:14:45;21.83;;;10.10;;
22794;SDS011;11564;50.920;11.612;2022-10-13T12:17:26;13.00;;;9.37;;
22794;SDS011;11564;50.920;11.612;2022-10-13T12:19:54;14.03;;;7.87;;
22794;SDS011;11564;50.920;11.612;2022-10-13T12:22:26;15.77;;;9.07;;
22794;SDS011;11564;50.920;11.612;2022-10-13T12:25:02;12.57;;;7.87;;
22794;SDS011;11564;50.920;11.612;2022-10-13T12:27:30;10.03;;;7.50;;
22794;SDS011;11564;50.920;11.612;2022-10-13T12:30:18;18.90;;;7.77;;
22794;SDS011;11564;50.920;11.612;2022-10-13T12:32:55;15.50;;;7.40;;
22794;SDS011;11564;50.920;11.612;2022-10-13T12:35:27;8.60;;;7.30;;
22794;SDS011;11564;50.920;11.612;2022-10-13T12:37:54;15.47;;;8.00;;
22794;SDS011;11564;50.920;11.612;2022-10-13T12:40:22;11.63;;;7.80;;
22794;SDS011;11564;50.920;11.612;2022-10-13T12:42:48;12.97;;;6.70;;
22794;SDS011;11564;50.920;11.612;2022-10-13T12:45:15;9.00;;;6.87;;
22794;SDS011;11564;50.920;11.612;2022-10-13T12:55:33;5.50;;;4.97;;
22794;SDS011;11564;50.920;11.612;2022-10-13T12:58:24;6.80;;;4.70;;
22794;SDS011;11564;50.920;11.612;2022-10-13T13:00:55;8.70;;;4.90;;
22794;SDS011;11564;50.920;11.612;2022-10-13T13:03:52;8.17;;;4.27;;
22794;SDS011;11564;50.920;11.612;2022-10-13T13:06:24;11.90;;;4.57;;
22794;SDS011;11564;50.920;11.612;2022-10-13T13:12:03;10.10;;;5.47;;
22794;SDS011;11564;50.920;11.612;2022-10-13T13:14:36;8.10;;;4.77;;
22794;SDS011;11564;50.920;11.612;2022-10-13T13:17:08;7.73;;;4.70;;
22794;SDS011;11564;50.920;11.612;2022-10-13T13:19:47;13.43;;;4.90;;
22794;SDS011;11564;50.920;11.612;2022-10-13T13:22:14;8.03;;;5.17;;
22794;SDS011;11564;50.920;11.612;2022-10-13T13:24:40;7.43;;;4.97;;
22794;SDS011;11564;50.920;11.612;2022-10-13T13:29:43;7.73;;;4.57;;
22794;SDS011;11564;50.920;11.612;2022-10-13T13:32:13;8.37;;;3.90;;
22794;SDS011;11564;50.920;11.612;2022-10-13T13:34:40;3.13;;;2.83;;
22794;SDS011;11564;50.920;11.612;2022-10-13T13:37:19;6.00;;;3.27;;
22794;SDS011;11564;50.920;11.612;2022-10-13T13:39:52;5.00;;;2.40;;
22794;SDS011;11564;50.920;11.612;2022-10-13T13:42:18;8.20;;;2.23;;
22794;SDS011;11564;50.920;11.612;2022-10-13T13:44:44;10.97;;;3.50;;
22794;SDS011;11564;50.920;11.612;2022-10-13T13:47:17;8.40;;;2.67;;
22794;SDS011;11564;50.920;11.612;2022-10-13T13:49:43;9.47;;;2.60;;
22794;SDS011;11564;50.920;11.612;2022-10-13T13:52:09;4.90;;;2.30;;
22794;SDS011;11564;50.920;11.612;2022-10-13T13:54:34;7.93;;;3.00;;
22794;SDS011;11564;50.920;11.612;2022-10-13T13:57:00;4.63;;;2.70;;
22794;SDS011;11564;50.920;11.612;2022-10-13T13:59:25;5.30;;;2.90;;
22794;SDS011;11564;50.920;11.612;2022-10-13T14:01:51;7.63;;;2.60;;
22794;SDS011;11564;50.920;11.612;2022-10-13T14:04:16;7.57;;;3.10;;
22794;SDS011;11564;50.920;11.612;2022-10-13T14:06:42;6.57;;;2.80;;
22794;SDS011;11564;50.920;11.612;2022-10-13T14:09:07;4.13;;;2.60;;
22794;SDS011;11564;50.920;11.612;2022-10-13T14:11:33;14.37;;;3.20;;
22794;SDS011;11564;50.920;11.612;2022-10-13T14:13:59;7.43;;;3.03;;
22794;SDS011;11564;50.920;11.612;2022-10-13T14:16:26;6.17;;;3.30;;
22794;SDS011;11564;50.920;11.612;2022-10-13T14:18:52;6.53;;;3.13;;
22794;SDS011;11564;50.920;11.612;2022-10-13T14:21:20;4.00;;;3.27;;
22794;SDS011;11564;50.920;11.612;2022-10-13T14:23:46;7.87;;;3.10;;
22794;SDS011;11564;50.920;11.612;2022-10-13T14:26:11;5.70;;;3.03;;
22794;SDS011;11564;50.920;11.612;2022-10-13T14:28:41;5.13;;;3.10;;
22794;SDS011;11564;50.920;11.612;2022-10-13T14:31:08;4.40;;;2.90;;
22794;SDS011;11564;50.920;11.612;2022-10-13T14:33:34;8.20;;;2.80;;
22794;SDS011;11564;50.920;11.612;2022-10-13T14:36:00;10.37;;;3.10;;
22794;SDS011;11564;50.920;11.612;2022-10-13T14:38:26;6.60;;;2.80;;
22794;SDS011;11564;50.920;11.612;2022-10-13T14:40:56;11.23;;;3.07;;
22794;SDS011;11564;50.920;11.612;2022-10-13T14:43:31;6.80;;;3.17;;
22794;SDS011;11564;50.920;11.612;2022-10-13T14:46:04;10.73;;;3.10;;
22794;SDS011;11564;50.920;11.612;2022-10-13T14:48:30;12.37;;;3.20;;
22794;SDS011;11564;50.920;11.612;2022-10-13T14:50:57;7.43;;;3.20;;
22794;SDS011;11564;50.920;11.612;2022-10-13T14:53:23;5.33;;;3.40;;
22794;SDS011;11564;50.920;11.612;2022-10-13T14:55:50;5.73;;;3.23;;
22794;SDS011;11564;50.920;11.612;2022-10-13T14:58:16;12.00;;;3.57;;
22794;SDS011;11564;50.920;11.612;2022-10-13T15:00:42;11.10;;;4.10;;
22794;SDS011;11564;50.920;11.612;2022-10-13T15:03:07;8.10;;;3.80;;
22794;SDS011;11564;50.920;11.612;2022-10-13T15:05:33;6.83;;;3.67;;
22794;SDS011;11564;50.920;11.612;2022-10-13T15:07:59;7.03;;;3.70;;
22794;SDS011;11564;50.920;11.612;2022-10-13T15:10:24;6.43;;;4.20;;
22794;SDS011;11564;50.920;11.612;2022-10-13T15:12:50;8.70;;;4.30;;
22794;SDS011;11564;50.920;11.612;2022-10-13T15:15:16;12.47;;;4.73;;
22794;SDS011;11564;50.920;11.612;2022-10-13T15:17:41;14.93;;;5.13;;
22794;SDS011;11564;50.920;11.612;2022-10-13T15:20:07;8.50;;;4.80;;
22794;SDS011;11564;50.920;11.612;2022-10-13T15:22:33;8.67;;;5.40;;
22794;SDS011;11564;50.920;11.612;2022-10-13T15:24:59;14.00;;;5.53;;
22794;SDS011;11564;50.920;11.612;2022-10-13T15:27:24;8.57;;;6.13;;
22794;SDS011;11564;50.920;11.612;2022-10-13T15:29:50;10.53;;;5.57;;
22794;SDS011;11564;50.920;11.612;2022-10-13T15:32:16;17.33;;;5.57;;
22794;SDS011;11564;50.920;11.612;2022-10-13T15:34:43;13.13;;;5.10;;
22794;SDS011;11564;50.920;11.612;2022-10-13T15:37:09;11.43;;;6.50;;
22794;SDS011;11564;50.920;11.612;2022-10-13T15:39:35;10.03;;;5.90;;
22794;SDS011;11564;50.920;11.612;2022-10-13T15:42:01;12.90;;;6.63;;
22794;SDS011;11564;50.920;11.612;2022-10-13T15:44:27;19.33;;;7.37;;
22794;SDS011;11564;50.920;11.612;2022-10-13T15:46:55;21.70;;;5.97;;
22794;SDS011;11564;50.920;11.612;2022-10-13T15:49:21;13.77;;;6.40;;
22794;SDS011;11564;50.920;11.612;2022-10-13T15:51:48;17.63;;;5.97;;
22794;SDS011;11564;50.920;11.612;2022-10-13T15:54:14;12.57;;;5.40;;
22794;SDS011;11564;50.920;11.612;2022-10-13T15:56:40;8.73;;;5.47;;
22794;SDS011;11564;50.920;11.612;2022-10-13T15:59:06;8.70;;;5.53;;
22794;SDS011;11564;50.920;11.612;2022-10-13T16:01:31;9.93;;;5.57;;
22794;SDS011;11564;50.920;11.612;2022-10-13T16:03:57;7.57;;;5.90;;
22794;SDS011;11564;50.920;11.612;2022-10-13T16:06:22;18.60;;;6.13;;
22794;SDS011;11564;50.920;11.612;2022-10-13T16:08:50;19.03;;;6.20;;
22794;SDS011;11564;50.920;11.612;2022-10-13T16:11:16;11.30;;;5.70;;
22794;SDS011;11564;50.920;11.612;2022-10-13T16:13:45;10.13;;;5.83;;
22794;SDS011;11564;50.920;11.612;2022-10-13T16:16:11;11.83;;;5.10;;
22794;SDS011;11564;50.920;11.612;2022-10-13T16:18:38;8.10;;;5.20;;
22794;SDS011;11564;50.920;11.612;2022-10-13T16:23:37;10.10;;;6.03;;
22794;SDS011;11564;50.920;11.612;2022-10-13T16:26:03;8.60;;;6.20;;